Time;durP1;ratioP1;P1;durP2;ratioP2;P2;SDS_P1;SDS_P2;PMS_P1;PMS_P2;Temp;Humidity;BMP_temperature;BMP_pressure;BME280_temperature;BME280_humidity;BME280_pressure;Samples;Min_cycle;Max_cycle;Signal;HPM_P1;HPM_P2
2022/05/22 00:01:53;;;;;;;0.00;0.00;;;18.80;99.90;;;;;;5071168;28;20020;-72
2022/05/22 00:04:19;;;;;;;0.90;0.80;;;18.70;99.90;;;;;;5071434;28;20701;-72
2022/05/22 00:06:45;;;;;;;1.92;1.77;;;18.80;99.90;;;;;;5072913;28;20112;-72
2022/05/22 00:09:11;;;;;;;3.92;3.10;;;18.90;99.90;;;;;;5067001;28;20024;-72
2022/05/22 00:11:38;;;;;;;0.52;0.22;;;18.90;99.90;;;;;;5062203;28;20471;-72
2022/05/22 00:14:04;;;;;;;0.32;0.32;;;18.70;99.90;;;;;;5056436;28;20039;-72
2022/05/22 00:16:36;;;;;;;0.00;0.00;;;18.70;99.90;;;;;;5069088;28;20040;-73
2022/05/22 00:19:15;;;;;;;0.22;0.17;;;18.60;99.90;;;;;;5058399;28;20041;-73
2022/05/22 00:21:41;;;;;;;0.57;0.28;;;18.50;99.90;;;;;;5066299;28;20027;-72
2022/05/22 00:24:09;;;;;;;0.00;0.00;;;18.40;99.90;;;;;;5074843;28;20058;-72
2022/05/22 00:26:35;;;;;;;0.00;0.00;;;18.40;99.90;;;;;;5080530;28;20032;-72
2022/05/22 00:29:01;;;;;;;0.00;0.00;;;18.40;99.90;;;;;;5071612;28;20516;-72
2022/05/22 00:31:27;;;;;;;0.00;0.00;;;18.40;99.90;;;;;;5063994;28;20029;-72
2022/05/22 00:33:53;;;;;;;0.00;0.00;;;18.40;99.90;;;;;;5063259;28;20137;-72
2022/05/22 00:36:19;;;;;;;0.00;0.00;;;18.40;99.90;;;;;;5067070;28;20036;-72
2022/05/22 00:38:45;;;;;;;0.10;0.10;;;18.40;99.90;;;;;;5069583;28;20032;-72
2022/05/22 00:41:12;;;;;;;0.98;0.28;;;18.40;99.90;;;;;;5069673;28;20498;-72
2022/05/22 00:43:45;;;;;;;10.98;6.22;;;18.20;99.90;;;;;;5071844;28;20021;-72
2022/05/22 00:46:14;;;;;;;0.10;0.10;;;18.30;99.90;;;;;;5070185;28;20383;-74
2022/05/22 00:48:43;;;;;;;5.82;4.38;;;18.20;99.90;;;;;;5069955;28;20055;-72
2022/05/22 00:51:33;;;;;;;3.25;0.68;;;18.30;99.90;;;;;;5070123;28;20051;-72
2022/05/22 00:54:39;;;;;;;1.10;0.47;;;18.30;99.90;;;;;;5059699;28;20035;-72
2022/05/22 00:57:34;;;;;;;0.00;0.00;;;18.20;99.90;;;;;;5079004;28;20093;-72
2022/05/22 01:00:09;;;;;;;0.00;0.00;;;18.20;99.90;;;;;;5066395;28;20075;-74
2022/05/22 01:03:36;;;;;;;0.05;0.05;;;18.10;99.90;;;;;;5067225;28;20032;-73
2022/05/22 01:05:30;;;;;;;2.50;2.40;;;18.20;99.90;;;;;;5064355;28;20055;-72
2022/05/22 01:07:57;;;;;;;0.00;0.00;;;18.00;99.90;;;;;;5070844;28;20054;-72
2022/05/22 01:10:32;;;;;;;0.00;0.00;;;18.00;99.90;;;;;;5069962;28;20028;-72
2022/05/22 01:13:00;;;;;;;0.00;0.00;;;18.00;99.90;;;;;;5064331;28;20055;-72
2022/05/22 01:15:26;;;;;;;0.00;0.00;;;17.80;99.90;;;;;;5071090;28;20032;-73
2022/05/22 01:17:53;;;;;;;1.55;1.45;;;17.80;99.90;;;;;;5064048;28;20037;-72
2022/05/22 01:20:20;;;;;;;0.03;0.03;;;17.80;99.90;;;;;;5070702;28;20112;-73
2022/05/22 01:22:46;;;;;;;1.02;0.10;;;17.90;99.90;;;;;;5070282;28;20519;-73
2022/05/22 01:25:12;;;;;;;0.98;0.38;;;17.90;99.90;;;;;;5065534;28;20017;-72
2022/05/22 01:27:39;;;;;;;0.00;0.00;;;17.90;99.90;;;;;;5059336;28;20058;-73
2022/05/22 01:30:11;;;;;;;0.00;0.00;;;17.80;99.90;;;;;;5068177;28;20409;-73
2022/05/22 01:32:41;;;;;;;0.35;0.35;;;18.00;99.90;;;;;;5066526;28;20064;-73
2022/05/22 01:35:08;;;;;;;0.10;0.03;;;17.90;99.90;;;;;;5070594;28;20033;-72
2022/05/22 01:37:34;;;;;;;0.00;0.00;;;18.00;99.90;;;;;;5070440;28;20021;-72
2022/05/22 01:40:00;;;;;;;1.17;1.17;;;18.00;99.90;;;;;;5062186;28;20025;-73
2022/05/22 01:42:28;;;;;;;0.00;0.00;;;17.90;99.90;;;;;;5063188;28;20028;-72
2022/05/22 01:44:54;;;;;;;0.52;0.38;;;17.90;99.90;;;;;;5069679;28;20025;-72
2022/05/22 01:47:20;;;;;;;0.17;0.10;;;17.70;99.90;;;;;;5066188;28;20060;-73
2022/05/22 01:49:46;;;;;;;0.03;0.00;;;17.60;99.90;;;;;;5075662;28;20039;-72
2022/05/22 01:52:12;;;;;;;0.00;0.00;;;17.50;99.90;;;;;;5064717;28;20468;-72
2022/05/22 01:54:38;;;;;;;0.00;0.00;;;17.40;99.90;;;;;;5051736;28;20070;-72
2022/05/22 01:57:04;;;;;;;0.00;0.00;;;17.60;99.90;;;;;;5070835;28;20359;-72
2022/05/22 01:59:31;;;;;;;0.00;0.00;;;17.70;99.90;;;;;;5070859;28;20029;-73
2022/05/22 02:01:57;;;;;;;0.47;0.43;;;17.50;99.90;;;;;;5068756;28;20016;-72
2022/05/22 02:04:23;;;;;;;0.00;0.00;;;17.70;99.90;;;;;;5069941;28;20047;-72
2022/05/22 02:09:34;;;;;;;0.90;0.90;;;17.70;99.90;;;;;;5071837;28;20272;-72
2022/05/22 02:12:00;;;;;;;0.00;0.00;;;17.80;99.90;;;;;;5069147;28;20031;-72
2022/05/22 02:14:26;;;;;;;0.00;0.00;;;17.80;99.90;;;;;;5069093;28;20068;-73
2022/05/22 02:16:52;;;;;;;0.00;0.00;;;17.70;99.90;;;;;;5069081;28;20323;-72
2022/05/22 02:19:18;;;;;;;0.00;0.00;;;17.60;99.90;;;;;;5070972;28;20111;-72
2022/05/22 02:21:45;;;;;;;0.65;0.65;;;17.70;99.90;;;;;;5071657;28;20055;-72
2022/05/22 02:24:11;;;;;;;0.00;0.00;;;17.30;99.90;;;;;;5068716;28;20431;-73
2022/05/22 02:26:38;;;;;;;0.00;0.00;;;17.30;99.90;;;;;;5065417;28;20540;-72
2022/05/22 02:29:05;;;;;;;0.70;0.43;;;17.40;99.90;;;;;;5070820;28;20024;-72
2022/05/22 02:31:31;;;;;;;0.05;0.05;;;17.50;99.90;;;;;;5065213;28;20043;-73
2022/05/22 02:33:58;;;;;;;0.00;0.00;;;17.50;99.90;;;;;;5062416;28;20423;-72
2022/05/22 02:36:24;;;;;;;0.00;0.00;;;17.30;99.90;;;;;;5056435;28;20029;-73
2022/05/22 02:38:51;;;;;;;0.00;0.00;;;17.30;99.90;;;;;;5074422;28;20040;-72
2022/05/22 02:41:17;;;;;;;0.00;0.00;;;17.30;99.90;;;;;;5054592;28;20055;-73
2022/05/22 02:43:44;;;;;;;0.00;0.00;;;17.40;99.90;;;;;;5068152;28;20025;-75
2022/05/22 02:46:11;;;;;;;0.00;0.00;;;17.20;99.90;;;;;;5057155;28;20031;-73
2022/05/22 02:48:38;;;;;;;0.22;0.22;;;17.10;99.90;;;;;;5060004;28;20053;-74
2022/05/22 02:51:04;;;;;;;0.00;0.00;;;16.90;99.90;;;;;;5055005;28;20037;-74
2022/05/22 02:53:30;;;;;;;0.08;0.08;;;16.90;99.90;;;;;;5055787;28;20029;-72
2022/05/22 02:56:05;;;;;;;0.32;0.32;;;16.90;99.90;;;;;;5067831;28;20025;-72
2022/05/22 02:58:31;;;;;;;0.00;0.00;;;16.90;99.90;;;;;;5070843;28;20071;-72
2022/05/22 03:00:57;;;;;;;0.00;0.00;;;16.70;99.90;;;;;;5058031;28;20112;-71
2022/05/22 03:03:23;;;;;;;0.00;0.00;;;16.70;99.90;;;;;;5060800;28;20036;-72
2022/05/22 03:08:33;;;;;;;0.00;0.00;;;16.60;99.90;;;;;;5074058;28;20059;-72
2022/05/22 03:11:04;;;;;;;0.00;0.00;;;16.60;99.90;;;;;;5073821;28;20441;-72
2022/05/22 03:13:30;;;;;;;0.10;0.10;;;16.70;99.90;;;;;;5070623;28;20041;-73
2022/05/22 03:15:56;;;;;;;0.00;0.00;;;16.70;99.90;;;;;;5063618;28;20073;-74
2022/05/22 03:18:22;;;;;;;0.00;0.00;;;16.70;99.90;;;;;;5057547;28;20068;-74
2022/05/22 03:20:48;;;;;;;15.00;5.10;;;16.70;99.90;;;;;;5072677;28;20028;-74
2022/05/22 03:23:15;;;;;;;0.00;0.00;;;16.40;99.90;;;;;;5071072;28;20380;-74
2022/05/22 03:25:46;;;;;;;0.93;0.60;;;16.30;99.90;;;;;;5072924;28;20035;-73
2022/05/22 03:28:14;;;;;;;0.00;0.00;;;16.10;99.90;;;;;;5072820;28;20107;-73
2022/05/22 03:43:28;;;;;;;0.00;0.00;;;15.90;99.90;;;;;;5125201;27;20893;-73
2022/05/22 03:45:54;;;;;;;0.00;0.00;;;15.70;99.90;;;;;;5117247;28;20027;-73
2022/05/22 03:48:20;;;;;;;0.00;0.00;;;15.80;99.90;;;;;;5119136;28;20369;-72
2022/05/22 03:50:50;;;;;;;0.00;0.00;;;15.70;99.90;;;;;;5117800;28;20429;-72
2022/05/22 03:53:16;;;;;;;0.00;0.00;;;15.50;99.90;;;;;;5116180;28;20026;-73
2022/05/22 03:55:43;;;;;;;0.00;0.00;;;15.60;99.90;;;;;;5119228;28;20406;-72
2022/05/22 03:58:10;;;;;;;0.00;0.00;;;15.60;99.90;;;;;;5117612;28;20016;-72
2022/05/22 04:00:36;;;;;;;0.00;0.00;;;15.30;99.90;;;;;;5110599;28;20059;-72
2022/05/22 04:03:02;;;;;;;0.00;0.00;;;15.30;99.90;;;;;;5113244;28;20030;-72
2022/05/22 04:05:28;;;;;;;0.00;0.00;;;15.10;99.90;;;;;;5119092;28;20011;-72
2022/05/22 04:07:54;;;;;;;0.00;0.00;;;15.20;99.90;;;;;;5117184;28;20024;-72
2022/05/22 04:10:20;;;;;;;0.08;0.08;;;15.20;99.90;;;;;;5105185;28;20040;-72
2022/05/22 04:12:46;;;;;;;0.00;0.00;;;15.10;99.90;;;;;;5115857;28;20031;-72
2022/05/22 04:15:18;;;;;;;0.10;0.10;;;15.30;99.90;;;;;;5116187;28;20023;-72
2022/05/22 04:17:45;;;;;;;0.10;0.10;;;15.40;99.90;;;;;;5117166;28;20051;-72
2022/05/22 04:20:12;;;;;;;0.00;0.00;;;15.60;99.90;;;;;;5109248;28;20035;-72
2022/05/22 04:25:11;;;;;;;0.00;0.00;;;15.50;99.90;;;;;;5107998;28;20021;-73
2022/05/22 04:25:25;;;;;;;0.08;0.08;;;15.50;99.90;;;;;;5112481;28;20088;-72
2022/05/22 04:27:52;;;;;;;0.63;0.63;;;15.70;99.90;;;;;;5114076;28;20466;-72
2022/05/22 04:30:19;;;;;;;0.00;0.00;;;15.70;99.90;;;;;;5104393;28;20024;-72
2022/05/22 04:32:47;;;;;;;0.00;0.00;;;15.50;99.90;;;;;;5104756;28;20035;-73
2022/05/22 04:35:13;;;;;;;1.23;1.02;;;15.50;99.90;;;;;;5094912;28;20024;-73
2022/05/22 04:37:40;;;;;;;0.35;0.35;;;15.80;99.90;;;;;;5096586;28;20032;-73
2022/05/22 04:40:07;;;;;;;1.65;0.52;;;15.80;99.90;;;;;;5094096;28;20035;-73
2022/05/22 04:42:35;;;;;;;0.00;0.00;;;15.60;99.90;;;;;;5103691;28;20120;-73
2022/05/22 04:45:03;;;;;;;0.65;0.65;;;15.90;99.90;;;;;;5089500;28;20031;-74
2022/05/22 04:47:29;;;;;;;27.50;10.35;;;15.90;99.90;;;;;;5096327;28;20505;-74
2022/05/22 04:49:55;;;;;;;26.02;1.05;;;15.80;99.90;;;;;;5101291;28;20044;-74
2022/05/22 04:52:22;;;;;;;0.00;0.00;;;15.80;99.90;;;;;;5093892;28;20115;-74
2022/05/22 04:54:48;;;;;;;0.13;0.13;;;15.90;99.90;;;;;;5093004;28;20020;-74
2022/05/22 04:57:14;;;;;;;0.13;0.08;;;16.10;99.90;;;;;;5094607;28;20020;-74
2022/05/22 04:59:40;;;;;;;0.00;0.00;;;16.20;99.90;;;;;;5095060;28;20374;-73
2022/05/22 05:02:06;;;;;;;0.00;0.00;;;16.10;99.90;;;;;;5094723;28;20060;-74
2022/05/22 05:04:32;;;;;;;0.00;0.00;;;16.30;99.90;;;;;;5094136;28;20024;-74
2022/05/22 05:06:58;;;;;;;0.00;0.00;;;16.50;99.90;;;;;;5092031;28;20489;-74
2022/05/22 05:09:24;;;;;;;0.00;0.00;;;16.80;99.90;;;;;;5092327;28;20039;-74
2022/05/22 05:11:50;;;;;;;0.45;0.45;;;16.70;99.90;;;;;;5090567;28;20106;-72
2022/05/22 05:14:17;;;;;;;0.00;0.00;;;16.70;99.90;;;;;;5094003;28;20027;-72
2022/05/22 05:16:43;;;;;;;0.00;0.00;;;16.70;99.90;;;;;;5092514;28;20458;-72
2022/05/22 05:19:09;;;;;;;0.00;0.00;;;16.90;99.90;;;;;;5086659;28;20672;-74
2022/05/22 05:21:35;;;;;;;0.00;0.00;;;17.00;99.90;;;;;;5082351;28;20027;-74
2022/05/22 05:24:01;;;;;;;0.00;0.00;;;16.80;99.90;;;;;;5094209;28;20032;-74
2022/05/22 05:26:27;;;;;;;0.82;0.82;;;17.10;99.90;;;;;;5096959;28;20099;-74
2022/05/22 05:28:53;;;;;;;0.10;0.10;;;17.20;99.90;;;;;;5097085;28;20028;-74
2022/05/22 05:31:19;;;;;;;0.00;0.00;;;17.30;99.90;;;;;;5092165;28;20024;-74
2022/05/22 05:33:45;;;;;;;0.00;0.00;;;17.30;99.90;;;;;;5092509;28;20027;-73
2022/05/22 05:36:12;;;;;;;0.00;0.00;;;17.20;99.90;;;;;;5092066;28;20020;-73
2022/05/22 05:38:38;;;;;;;0.10;0.10;;;17.10;99.90;;;;;;5089249;28;20035;-73
2022/05/22 05:41:04;;;;;;;2.45;1.75;;;17.20;99.90;;;;;;5100383;28;20106;-73
2022/05/22 05:43:30;;;;;;;0.00;0.00;;;17.40;99.90;;;;;;5098274;28;20032;-73
2022/05/22 05:45:56;;;;;;;0.00;0.00;;;17.20;99.90;;;;;;5102948;28;20084;-74
2022/05/22 05:48:22;;;;;;;0.00;0.00;;;17.10;99.90;;;;;;5101283;28;20019;-74
2022/05/22 05:50:48;;;;;;;0.00;0.00;;;17.10;99.90;;;;;;5105641;28;20032;-75
2022/05/22 05:53:14;;;;;;;0.00;0.00;;;17.10;99.90;;;;;;5097053;28;20024;-73
2022/05/22 05:55:41;;;;;;;0.00;0.00;;;16.50;99.90;;;;;;5097107;28;20031;-73
2022/05/22 05:58:07;;;;;;;0.00;0.00;;;16.50;99.90;;;;;;5101016;28;20066;-73
2022/05/22 06:00:33;;;;;;;0.00;0.00;;;16.60;99.90;;;;;;5099730;28;20327;-73
2022/05/22 06:03:00;;;;;;;0.00;0.00;;;16.70;99.90;;;;;;5097380;28;20363;-74
2022/05/22 06:05:26;;;;;;;0.00;0.00;;;16.60;99.90;;;;;;5082965;28;20390;-74
2022/05/22 06:07:52;;;;;;;0.00;0.00;;;16.30;99.90;;;;;;5095178;28;20020;-74
2022/05/22 06:10:20;;;;;;;0.00;0.00;;;16.50;99.90;;;;;;5095613;28;20355;-74
2022/05/22 06:12:46;;;;;;;0.00;0.00;;;16.60;99.90;;;;;;5109790;28;20386;-74
2022/05/22 06:15:13;;;;;;;0.00;0.00;;;16.80;99.90;;;;;;5090625;28;20072;-74
2022/05/22 06:17:46;;;;;;;0.45;0.30;;;17.10;99.90;;;;;;5091825;28;20011;-74
2022/05/22 06:20:16;;;;;;;0.00;0.00;;;17.30;99.90;;;;;;5099129;28;20023;-75
2022/05/22 06:22:44;;;;;;;0.00;0.00;;;17.20;99.90;;;;;;5093197;28;20028;-71
2022/05/22 06:25:12;;;;;;;0.00;0.00;;;17.30;99.90;;;;;;5077121;28;20030;-74
2022/05/22 06:27:38;;;;;;;0.00;0.00;;;17.50;99.90;;;;;;5093519;28;20065;-74
2022/05/22 06:30:06;;;;;;;0.00;0.00;;;17.20;99.90;;;;;;5092372;28;20085;-74
2022/05/22 06:32:32;;;;;;;0.00;0.00;;;17.30;99.90;;;;;;5104064;28;20041;-73
2022/05/22 06:34:59;;;;;;;0.00;0.00;;;17.20;99.90;;;;;;5085081;28;20020;-75
2022/05/22 06:37:25;;;;;;;0.00;0.00;;;17.60;99.90;;;;;;5098318;28;20030;-73
2022/05/22 06:39:53;;;;;;;0.20;0.13;;;17.70;99.90;;;;;;5090834;28;20055;-74
2022/05/22 06:42:34;;;;;;;3.70;2.83;;;17.60;99.90;;;;;;5067403;28;20491;-74
2022/05/22 06:45:26;;;;;;;0.00;0.00;;;17.40;99.90;;;;;;5071727;28;20047;-74
2022/05/22 06:47:52;;;;;;;14.05;13.05;;;16.80;99.90;;;;;;5072000;28;20245;-74
2022/05/22 06:50:20;;;;;;;0.00;0.00;;;16.70;99.90;;;;;;5061795;28;20033;-74
2022/05/22 06:52:47;;;;;;;0.00;0.00;;;16.50;99.90;;;;;;5069048;28;20483;-74
2022/05/22 06:55:13;;;;;;;0.93;0.75;;;16.10;99.90;;;;;;5062901;28;20357;-74
2022/05/22 06:57:40;;;;;;;0.70;0.30;;;15.90;99.90;;;;;;5070056;28;20032;-75
2022/05/22 07:00:14;;;;;;;0.00;0.00;;;15.60;99.90;;;;;;5070941;28;20048;-75
2022/05/22 07:02:41;;;;;;;0.00;0.00;;;15.20;99.90;;;;;;5072167;28;20099;-74
2022/05/22 07:05:09;;;;;;;0.00;0.00;;;14.80;99.90;;;;;;5071653;28;20417;-74
2022/05/22 07:07:35;;;;;;;0.52;0.52;;;14.80;99.90;;;;;;5070427;28;20056;-73
2022/05/22 07:10:02;;;;;;;0.00;0.00;;;14.60;99.90;;;;;;5065984;28;20032;-73
2022/05/22 07:12:29;;;;;;;0.20;0.20;;;14.50;99.90;;;;;;5064873;28;20474;-73
2022/05/22 07:14:56;;;;;;;0.65;0.52;;;14.30;99.90;;;;;;5071120;28;20529;-73
2022/05/22 07:17:24;;;;;;;1.13;0.65;;;14.20;99.90;;;;;;5071282;28;20025;-74
2022/05/22 07:19:52;;;;;;;0.63;0.63;;;14.30;99.90;;;;;;5070397;28;20039;-73
2022/05/22 07:22:20;;;;;;;0.03;0.03;;;14.20;99.90;;;;;;5070472;28;20443;-73
2022/05/22 07:24:47;;;;;;;0.00;0.00;;;14.10;99.90;;;;;;5069101;28;20028;-73
2022/05/22 07:27:14;;;;;;;0.00;0.00;;;14.00;99.90;;;;;;5071288;28;20066;-73
2022/05/22 07:29:41;;;;;;;0.08;0.08;;;14.00;99.90;;;;;;5068578;28;20365;-73
2022/05/22 07:32:07;;;;;;;0.00;0.00;;;13.80;99.90;;;;;;5070657;28;20031;-73
2022/05/22 07:34:34;;;;;;;0.00;0.00;;;13.90;99.90;;;;;;5070069;28;20401;-73
2022/05/22 07:37:08;;;;;;;0.00;0.00;;;14.00;99.90;;;;;;5071418;28;20025;-73
2022/05/22 07:39:34;;;;;;;0.25;0.03;;;14.30;99.90;;;;;;5088144;28;20020;-74
2022/05/22 07:42:00;;;;;;;0.00;0.00;;;14.40;99.90;;;;;;5100188;28;20055;-73
2022/05/22 07:44:26;;;;;;;2.83;2.65;;;14.50;99.90;;;;;;5094382;28;20023;-74
2022/05/22 07:46:52;;;;;;;0.00;0.00;;;14.20;99.90;;;;;;5091706;28;20055;-73
2022/05/22 07:52:09;;;;;;;0.00;0.00;;;14.40;99.90;;;;;;5090301;28;20107;-73
2022/05/22 07:54:40;;;;;;;0.00;0.00;;;14.60;99.90;;;;;;5090938;28;20055;-73
2022/05/22 07:57:07;;;;;;;0.28;0.28;;;14.50;99.90;;;;;;5085406;28;20477;-73
2022/05/22 07:59:35;;;;;;;0.00;0.00;;;14.10;99.90;;;;;;5087207;28;20031;-73
2022/05/22 08:02:02;;;;;;;0.20;0.20;;;14.20;99.90;;;;;;5092086;28;20408;-74
2022/05/22 08:04:29;;;;;;;0.55;0.55;;;14.50;99.90;;;;;;5091506;28;20017;-74
2022/05/22 08:06:55;;;;;;;0.00;0.00;;;14.60;99.90;;;;;;5078067;28;20043;-73
2022/05/22 08:09:21;;;;;;;3.17;2.95;;;14.70;99.90;;;;;;5096501;28;20032;-74
2022/05/22 08:11:49;;;;;;;1.17;0.40;;;14.40;99.90;;;;;;5091212;28;20035;-73
2022/05/22 08:14:16;;;;;;;0.05;0.03;;;14.20;99.90;;;;;;5086098;28;20064;-72
2022/05/22 08:16:43;;;;;;;0.90;0.75;;;13.40;99.90;;;;;;5082670;28;20099;-72
2022/05/22 08:19:10;;;;;;;1.42;0.45;;;12.90;99.90;;;;;;5082772;28;20074;-74
2022/05/22 08:21:37;;;;;;;0.00;0.00;;;12.80;99.90;;;;;;5088176;28;20028;-72
2022/05/22 08:24:03;;;;;;;1.02;0.98;;;12.90;99.90;;;;;;5081816;28;20506;-72
2022/05/22 08:26:29;;;;;;;0.10;0.03;;;13.00;99.90;;;;;;5093516;28;20027;-72
2022/05/22 08:28:56;;;;;;;0.00;0.00;;;12.80;99.90;;;;;;5093763;28;20027;-74
2022/05/22 08:31:22;;;;;;;0.30;0.10;;;12.80;99.90;;;;;;5094363;28;20111;-73
2022/05/22 08:33:48;;;;;;;0.03;0.03;;;12.90;99.90;;;;;;5094787;28;20022;-72
2022/05/22 08:36:14;;;;;;;2.05;1.65;;;13.00;99.90;;;;;;5100398;28;20028;-75
2022/05/22 08:38:41;;;;;;;1.17;0.60;;;12.90;99.90;;;;;;5094538;28;20510;-74
2022/05/22 08:41:22;;;;;;;1.02;0.93;;;12.70;99.90;;;;;;5094517;28;20032;-73
2022/05/22 08:43:57;;;;;;;1.00;0.88;;;12.70;99.90;;;;;;5085303;28;20479;-74
2022/05/22 08:46:31;;;;;;;1.25;0.63;;;12.70;99.90;;;;;;5086030;28;20028;-74
2022/05/22 08:49:01;;;;;;;0.38;0.38;;;12.70;99.90;;;;;;5088596;28;20455;-74
2022/05/22 08:51:45;;;;;;;0.25;0.10;;;12.60;99.90;;;;;;5079883;28;20379;-74
2022/05/22 08:54:39;;;;;;;0.00;0.00;;;12.60;99.90;;;;;;5081174;28;20037;-74
2022/05/22 09:00:04;;;;;;;0.30;0.30;;;12.30;99.90;;;;;;5074922;28;20027;-74
2022/05/22 09:02:45;;;;;;;0.00;0.00;;;12.40;99.90;;;;;;5076044;28;20400;-74
2022/05/22 09:05:22;;;;;;;0.00;0.00;;;12.30;99.90;;;;;;5074359;28;20032;-72
2022/05/22 09:08:02;;;;;;;0.32;0.32;;;12.60;99.90;;;;;;5078540;28;20035;-74
2022/05/22 09:10:37;;;;;;;0.32;0.05;;;12.70;99.90;;;;;;5079422;28;20027;-74
2022/05/22 09:13:41;;;;;;;0.15;0.13;;;12.60;99.90;;;;;;5091326;28;20114;-74
2022/05/22 09:16:31;;;;;;;0.77;0.77;;;12.40;99.90;;;;;;5084949;28;20371;-73
2022/05/22 09:19:26;;;;;;;0.63;0.38;;;12.30;99.90;;;;;;5080890;28;20048;-74
2022/05/22 09:22:09;;;;;;;0.00;0.00;;;12.20;99.90;;;;;;5083286;28;20024;-74
2022/05/22 09:24:40;;;;;;;0.00;0.00;;;12.10;99.90;;;;;;5088508;28;20039;-72
2022/05/22 09:27:08;;;;;;;0.00;0.00;;;12.30;99.90;;;;;;5098715;28;20020;-72
2022/05/22 09:29:48;;;;;;;1.45;1.35;;;12.50;99.90;;;;;;5088823;28;20055;-73
2022/05/22 09:32:27;;;;;;;0.47;0.47;;;12.50;99.90;;;;;;5093275;28;20471;-75
2022/05/22 09:35:10;;;;;;;0.38;0.22;;;12.40;99.90;;;;;;5085221;28;20017;-74
2022/05/22 09:38:04;;;;;;;0.30;0.30;;;12.30;99.90;;;;;;5096130;28;20024;-74
2022/05/22 09:40:47;;;;;;;0.00;0.00;;;12.10;99.90;;;;;;5078211;28;20021;-75
2022/05/22 09:43:32;;;;;;;1.13;0.55;;;12.20;99.90;;;;;;5100670;28;20051;-74
2022/05/22 09:46:09;;;;;;;0.00;0.00;;;12.30;99.90;;;;;;5099679;28;20032;-74
2022/05/22 09:49:00;;;;;;;0.15;0.15;;;12.20;99.90;;;;;;5095552;28;20027;-74
2022/05/22 09:51:50;;;;;;;0.20;0.20;;;12.40;99.90;;;;;;5094946;28;20032;-74
2022/05/22 09:54:37;;;;;;;1.05;0.45;;;12.40;99.90;;;;;;5084243;28;20025;-75
2022/05/22 09:57:19;;;;;;;0.25;0.25;;;12.20;99.90;;;;;;5090391;28;20020;-74
2022/05/22 10:00:06;;;;;;;0.45;0.28;;;11.90;99.90;;;;;;5092854;28;20066;-74
2022/05/22 10:02:44;;;;;;;0.00;0.00;;;12.00;99.90;;;;;;5093268;28;20040;-75
2022/05/22 10:05:19;;;;;;;0.10;0.10;;;12.00;99.90;;;;;;5091556;28;20028;-73
2022/05/22 10:08:25;;;;;;;0.30;0.30;;;11.90;99.90;;;;;;5091071;28;20024;-74
2022/05/22 10:11:02;;;;;;;2.92;0.17;;;11.80;99.90;;;;;;5089935;28;20417;-74
2022/05/22 10:14:17;;;;;;;0.00;0.00;;;11.70;99.90;;;;;;5085678;28;20031;-74
2022/05/22 10:16:53;;;;;;;0.00;0.00;;;11.70;99.90;;;;;;5033496;28;20031;-74
2022/05/22 10:19:45;;;;;;;1.38;1.25;;;11.70;99.90;;;;;;5096916;28;20039;-75
2022/05/22 10:22:27;;;;;;;1.55;1.45;;;11.70;99.90;;;;;;5077575;28;20119;-73
2022/05/22 10:25:02;;;;;;;0.00;0.00;;;11.70;99.90;;;;;;5092357;28;20020;-75
2022/05/22 10:27:52;;;;;;;0.00;0.00;;;11.80;99.90;;;;;;5090655;28;20032;-74
2022/05/22 10:30:38;;;;;;;1.33;1.20;;;11.80;99.90;;;;;;5083287;28;20024;-74
2022/05/22 10:33:13;;;;;;;0.15;0.15;;;11.60;99.90;;;;;;5091225;28;20028;-75
2022/05/22 10:35:48;;;;;;;0.85;0.85;;;11.60;99.90;;;;;;5091846;28;20027;-75
2022/05/22 10:38:19;;;;;;;0.00;0.00;;;11.70;99.90;;;;;;5092139;28;20024;-74
2022/05/22 10:43:41;;;;;;;1.17;0.80;;;12.10;99.90;;;;;;5079847;28;20094;-75
2022/05/22 10:46:07;;;;;;;1.45;0.75;;;12.10;99.90;;;;;;5087098;28;20470;-74
2022/05/22 10:48:35;;;;;;;0.00;0.00;;;12.10;99.90;;;;;;5091614;28;20028;-75
2022/05/22 10:51:04;;;;;;;0.00;0.00;;;11.90;99.90;;;;;;5092672;28;20044;-74
2022/05/22 10:53:31;;;;;;;0.00;0.00;;;12.00;99.90;;;;;;5092358;28;20048;-74
2022/05/22 10:56:06;;;;;;;0.52;0.52;;;12.10;99.90;;;;;;5082057;28;20021;-75
2022/05/22 10:58:35;;;;;;;0.05;0.05;;;12.20;99.90;;;;;;5077382;28;20043;-75
2022/05/22 11:01:05;;;;;;;0.73;0.60;;;12.30;99.90;;;;;;5089176;28;20735;-74
2022/05/22 11:03:35;;;;;;;0.00;0.00;;;12.20;99.90;;;;;;5087762;28;20023;-75
2022/05/22 11:06:14;;;;;;;0.00;0.00;;;12.20;99.90;;;;;;5100128;28;20119;-75
2022/05/22 11:08:48;;;;;;;0.60;0.20;;;12.20;99.90;;;;;;5097267;28;20031;-75
2022/05/22 11:11:27;;;;;;;0.13;0.10;;;12.00;99.90;;;;;;5101143;28;20032;-75
2022/05/22 11:14:03;;;;;;;0.40;0.40;;;11.80;99.90;;;;;;5091971;28;20016;-75
2022/05/22 11:16:29;;;;;;;0.00;0.00;;;11.70;99.90;;;;;;5094464;28;20495;-74
2022/05/22 11:19:25;;;;;;;0.00;0.00;;;11.80;99.90;;;;;;5095718;28;20374;-75
2022/05/22 11:22:20;;;;;;;0.00;0.00;;;11.80;99.90;;;;;;5091136;28;20041;-74
2022/05/22 11:24:59;;;;;;;0.75;0.60;;;11.90;99.90;;;;;;5090302;28;20028;-74
2022/05/22 11:27:40;;;;;;;0.95;0.90;;;12.00;99.90;;;;;;5074706;28;20562;-74
2022/05/22 11:30:18;;;;;;;0.20;0.20;;;11.60;99.90;;;;;;5089725;28;20466;-74
2022/05/22 11:33:02;;;;;;;0.00;0.00;;;11.60;99.90;;;;;;5088523;28;20091;-74
2022/05/22 11:35:28;;;;;;;0.28;0.25;;;11.60;99.90;;;;;;5081619;28;20157;-74
2022/05/22 11:38:00;;;;;;;0.00;0.00;;;11.70;99.90;;;;;;5085427;28;20028;-74
2022/05/22 11:40:47;;;;;;;0.00;0.00;;;11.60;99.90;;;;;;5078843;28;20035;-75
2022/05/22 11:43:47;;;;;;;0.00;0.00;;;11.70;99.90;;;;;;5075565;28;20044;-75
2022/05/22 11:46:37;;;;;;;0.00;0.00;;;11.90;99.90;;;;;;5079649;28;20043;-75
2022/05/22 11:49:32;;;;;;;0.88;0.85;;;11.80;99.90;;;;;;5076573;28;20034;-75
2022/05/22 11:55:30;;;;;;;0.00;0.00;;;11.50;99.90;;;;;;5095305;28;20039;-75
2022/05/22 11:58:43;;;;;;;0.65;0.10;;;11.60;99.90;;;;;;5082097;28;20455;-74
2022/05/22 12:01:15;;;;;;;0.00;0.00;;;11.70;99.90;;;;;;5072756;28;20041;-73
2022/05/22 12:04:24;;;;;;;0.00;0.00;;;11.70;99.90;;;;;;5081535;28;20047;-74
2022/05/22 12:07:13;;;;;;;0.00;0.00;;;11.80;99.90;;;;;;5082381;28;20479;-73
2022/05/22 12:09:58;;;;;;;1.77;0.47;;;11.80;99.90;;;;;;5080732;28;20027;-76
2022/05/22 12:12:42;;;;;;;0.98;0.43;;;11.80;99.90;;;;;;5078412;28;20032;-73
2022/05/22 12:15:31;;;;;;;0.00;0.00;;;11.80;99.90;;;;;;5082069;28;20160;-73
2022/05/22 12:18:14;;;;;;;0.22;0.22;;;11.70;99.90;;;;;;5084319;28;20021;-73
2022/05/22 12:21:05;;;;;;;0.00;0.00;;;11.70;99.90;;;;;;5077998;28;20021;-74
2022/05/22 12:23:51;;;;;;;0.00;0.00;;;11.60;99.90;;;;;;5083974;28;20032;-73
2022/05/22 12:26:19;;;;;;;7.85;2.55;;;11.70;99.90;;;;;;5080818;28;20486;-75
2022/05/22 12:29:04;;;;;;;0.80;0.80;;;11.80;99.90;;;;;;5079571;28;20054;-74
2022/05/22 12:31:37;;;;;;;0.20;0.20;;;11.70;99.90;;;;;;5081553;28;20031;-74
2022/05/22 12:34:07;;;;;;;0.00;0.00;;;11.80;99.90;;;;;;5083111;28;20020;-73
2022/05/22 12:36:34;;;;;;;0.57;0.57;;;11.40;99.90;;;;;;5076478;28;20123;-74
2022/05/22 12:39:07;;;;;;;0.00;0.00;;;11.50;99.90;;;;;;5082572;28;20447;-76
2022/05/22 12:41:46;;;;;;;0.00;0.00;;;11.60;99.90;;;;;;5091787;28;20078;-74
2022/05/22 12:44:13;;;;;;;2.50;2.35;;;11.80;99.90;;;;;;5083752;28;20590;-74
2022/05/22 12:46:39;;;;;;;0.00;0.00;;;11.80;99.90;;;;;;5078575;28;20031;-74
2022/05/22 12:49:26;;;;;;;0.20;0.20;;;11.90;99.90;;;;;;5075793;28;20024;-74
2022/05/22 12:52:26;;;;;;;0.00;0.00;;;11.80;99.90;;;;;;5084296;28;20074;-74
2022/05/22 12:55:02;;;;;;;0.00;0.00;;;11.80;99.90;;;;;;5085689;28;20078;-74
2022/05/22 12:57:28;;;;;;;1.35;1.35;;;11.80;99.90;;;;;;5089470;28;20023;-75
2022/05/22 12:59:57;;;;;;;0.85;0.85;;;11.60;99.90;;;;;;5092977;28;20039;-75
2022/05/22 13:02:33;;;;;;;0.30;0.20;;;11.60;99.90;;;;;;5093078;28;20032;-75
2022/05/22 13:05:01;;;;;;;0.00;0.00;;;11.60;99.90;;;;;;5096430;28;20032;-73
2022/05/22 13:07:34;;;;;;;0.00;0.00;;;11.70;99.90;;;;;;5093724;28;20028;-74
2022/05/22 13:10:17;;;;;;;0.00;0.00;;;11.70;99.90;;;;;;5098415;28;20109;-76
2022/05/22 13:12:44;;;;;;;0.00;0.00;;;11.80;99.90;;;;;;5095766;28;20024;-74
2022/05/22 13:15:15;;;;;;;0.00;0.00;;;11.70;99.90;;;;;;5087950;28;20027;-74
2022/05/22 13:17:51;;;;;;;0.00;0.00;;;11.60;99.90;;;;;;5095473;28;20028;-74
2022/05/22 13:20:36;;;;;;;0.10;0.10;;;11.60;99.90;;;;;;5097740;28;20081;-74
2022/05/22 13:23:06;;;;;;;0.00;0.00;;;11.30;99.90;;;;;;5078659;28;20024;-74
2022/05/22 13:25:44;;;;;;;32.63;4.40;;;11.30;99.90;;;;;;5074269;28;20032;-74
2022/05/22 13:28:21;;;;;;;2.08;1.88;;;11.50;99.90;;;;;;5093692;28;20028;-74
2022/05/22 13:31:06;;;;;;;0.00;0.00;;;11.60;99.90;;;;;;5093317;28;20033;-73
2022/05/22 13:33:39;;;;;;;0.00;0.00;;;11.60;99.90;;;;;;5091984;28;20457;-74
2022/05/22 13:36:26;;;;;;;0.00;0.00;;;11.70;99.90;;;;;;5097051;28;20377;-73
2022/05/22 13:38:55;;;;;;;0.00;0.00;;;11.80;99.90;;;;;;5092967;28;20032;-72
2022/05/22 13:41:54;;;;;;;0.00;0.00;;;11.80;99.90;;;;;;5089479;28;20391;-72